Time;durP1;ratioP1;P1;durP2;ratioP2;P2;SDS_P1;SDS_P2;PMS_P1;PMS_P2;Temp;Humidity;BMP_temperature;BMP_pressure;BME280_temperature;BME280_humidity;BME280_pressure;Samples;Min_cycle;Max_cycle;Signal;HPM_P1;HPM_P2
2022/07/21 00:00:51;;;;;;;4.03;1.50;;;23.10;99.90;;;;;;5087091;28;20247;-67
2022/07/21 00:03:17;;;;;;;3.87;2.03;;;23.10;99.90;;;;;;5074841;28;20186;-68
2022/07/21 00:05:44;;;;;;;2.80;1.70;;;23.10;99.90;;;;;;5085103;28;20197;-64
2022/07/21 00:08:10;;;;;;;3.60;1.70;;;23.20;99.90;;;;;;5058436;28;20604;-66
2022/07/21 00:10:36;;;;;;;5.97;1.87;;;23.20;99.90;;;;;;5088713;28;20292;-66
2022/07/21 00:13:02;;;;;;;4.67;1.77;;;23.10;99.90;;;;;;5075111;28;20226;-66
2022/07/21 00:15:29;;;;;;;4.63;1.63;;;23.10;99.90;;;;;;5086180;28;20179;-67
2022/07/21 00:17:59;;;;;;;7.20;1.97;;;23.00;99.90;;;;;;5051463;28;20201;-67
2022/07/21 00:20:27;;;;;;;3.07;1.50;;;22.90;99.90;;;;;;5075816;28;20183;-65
2022/07/21 00:22:54;;;;;;;3.83;1.60;;;22.90;99.90;;;;;;5073665;28;20183;-65
2022/07/21 00:25:21;;;;;;;3.03;1.60;;;22.90;99.90;;;;;;5082861;28;20178;-65
2022/07/21 00:27:47;;;;;;;6.23;1.70;;;22.90;99.90;;;;;;5086294;28;20198;-65
2022/07/21 00:30:16;;;;;;;4.83;1.70;;;23.00;99.90;;;;;;5081909;28;20255;-65
2022/07/21 00:32:43;;;;;;;3.23;1.53;;;23.00;99.90;;;;;;5089158;28;20221;-67
2022/07/21 00:35:12;;;;;;;3.73;1.70;;;22.90;99.90;;;;;;5086229;28;20194;-65
2022/07/21 00:37:40;;;;;;;3.07;1.40;;;22.90;99.90;;;;;;5085269;28;20541;-68
2022/07/21 00:40:10;;;;;;;3.25;1.50;;;23.00;99.90;;;;;;5065188;28;20194;-65
2022/07/21 00:42:37;;;;;;;5.70;2.23;;;22.90;99.90;;;;;;5083905;28;20911;-66
2022/07/21 00:45:06;;;;;;;5.63;1.57;;;22.90;99.90;;;;;;5082955;28;20182;-67
2022/07/21 00:47:33;;;;;;;4.93;1.40;;;22.90;99.90;;;;;;5060138;28;20186;-68
2022/07/21 00:50:06;;;;;;;4.43;1.50;;;22.80;99.90;;;;;;5055032;28;20233;-67
2022/07/21 00:52:32;;;;;;;3.73;1.70;;;22.70;99.90;;;;;;5083840;28;20174;-65
2022/07/21 00:55:01;;;;;;;5.90;1.60;;;22.70;99.90;;;;;;5084779;28;20884;-66
2022/07/21 00:57:28;;;;;;;2.13;1.17;;;22.70;99.90;;;;;;5085375;28;20543;-66
2022/07/21 00:59:54;;;;;;;3.67;1.27;;;22.60;99.90;;;;;;5059325;28;20182;-65
2022/07/21 01:02:20;;;;;;;3.93;1.37;;;22.60;99.90;;;;;;5063944;28;20904;-66
2022/07/21 01:04:47;;;;;;;3.23;1.67;;;22.50;99.90;;;;;;5082309;28;20724;-65
2022/07/21 01:07:15;;;;;;;4.20;1.27;;;22.60;99.90;;;;;;5087056;28;20201;-68
2022/07/21 01:09:42;;;;;;;3.93;1.50;;;22.50;99.90;;;;;;5070682;28;20215;-67
2022/07/21 01:12:09;;;;;;;8.07;1.63;;;22.50;99.90;;;;;;5085774;28;20301;-66
2022/07/21 01:14:36;;;;;;;3.37;1.50;;;22.30;99.90;;;;;;5059547;28;20574;-68
2022/07/21 01:17:03;;;;;;;4.50;1.87;;;22.30;99.90;;;;;;5081984;28;20201;-66
2022/07/21 01:19:30;;;;;;;4.93;1.53;;;22.20;99.90;;;;;;5072886;28;20232;-67
2022/07/21 01:21:57;;;;;;;3.93;1.47;;;22.20;99.90;;;;;;5083757;28;20227;-65
2022/07/21 01:24:23;;;;;;;3.67;1.50;;;22.20;99.90;;;;;;5085976;28;20209;-67
2022/07/21 01:26:53;;;;;;;5.47;1.50;;;22.20;99.90;;;;;;5083595;28;20343;-68
2022/07/21 01:29:20;;;;;;;7.53;1.40;;;22.20;99.90;;;;;;5084871;28;21244;-65
2022/07/21 01:31:49;;;;;;;5.83;1.40;;;22.20;99.90;;;;;;5087641;28;20265;-66
2022/07/21 01:34:15;;;;;;;2.20;1.40;;;22.10;99.90;;;;;;5068274;28;20273;-66
2022/07/21 01:36:42;;;;;;;3.33;1.53;;;22.10;99.90;;;;;;5082442;28;20250;-66
2022/07/21 01:41:53;;;;;;;4.37;1.20;;;22.10;99.90;;;;;;5087764;28;20286;-66
2022/07/21 01:44:20;;;;;;;3.00;1.10;;;22.10;99.90;;;;;;5085646;28;20189;-65
2022/07/21 01:46:52;;;;;;;5.07;1.53;;;22.10;99.90;;;;;;5084312;28;20194;-65
2022/07/21 01:49:20;;;;;;;3.87;1.20;;;22.10;99.90;;;;;;5072400;28;20214;-66
2022/07/21 01:51:48;;;;;;;2.13;1.20;;;22.10;99.90;;;;;;5087578;28;20182;-65
2022/07/21 01:54:14;;;;;;;1.67;1.13;;;22.10;99.70;;;;;;5087915;28;20284;-66
2022/07/21 01:56:42;;;;;;;2.90;1.20;;;22.10;99.70;;;;;;5071727;28;20247;-67
2022/07/21 01:59:09;;;;;;;1.50;1.03;;;22.10;99.50;;;;;;5084679;28;20217;-65
2022/07/21 02:01:35;;;;;;;2.93;1.30;;;22.10;99.30;;;;;;5078342;28;20201;-65
2022/07/21 02:04:05;;;;;;;3.10;1.20;;;22.20;99.40;;;;;;5049529;28;20269;-68
2022/07/21 02:06:32;;;;;;;2.43;1.20;;;22.20;98.90;;;;;;5066691;28;20700;-68
2022/07/21 02:09:01;;;;;;;1.83;1.20;;;22.20;98.70;;;;;;5081774;28;20205;-65
2022/07/21 02:11:28;;;;;;;1.83;1.10;;;22.30;98.50;;;;;;5091029;28;20657;-65
2022/07/21 02:13:54;;;;;;;1.50;1.13;;;22.20;98.60;;;;;;5089533;28;20280;-65
2022/07/21 02:16:21;;;;;;;2.00;1.20;;;22.30;98.90;;;;;;5079205;28;20272;-66
2022/07/21 02:18:48;;;;;;;1.50;1.00;;;22.30;98.30;;;;;;5070914;28;20281;-68
2022/07/21 02:21:14;;;;;;;2.77;1.20;;;22.20;98.10;;;;;;5061742;28;20181;-65
2022/07/21 02:23:44;;;;;;;3.93;1.20;;;22.20;98.30;;;;;;5090908;28;20193;-65
2022/07/21 02:26:12;;;;;;;2.07;1.10;;;22.20;98.30;;;;;;5087689;28;20209;-65
2022/07/21 02:28:38;;;;;;;3.40;1.20;;;22.20;98.30;;;;;;5086072;28;20634;-65
2022/07/21 02:31:05;;;;;;;2.10;1.10;;;22.30;98.40;;;;;;5085771;28;20213;-65
2022/07/21 02:33:33;;;;;;;2.10;1.43;;;22.20;97.90;;;;;;5090281;28;20186;-68
2022/07/21 02:36:00;;;;;;;2.83;1.30;;;22.20;97.80;;;;;;5086424;28;20189;-66
2022/07/21 02:38:28;;;;;;;3.27;1.27;;;22.20;97.90;;;;;;5091720;28;20182;-66
2022/07/21 02:40:54;;;;;;;2.27;1.10;;;22.20;98.00;;;;;;5089469;28;20214;-65
2022/07/21 02:43:20;;;;;;;3.40;1.20;;;22.20;97.80;;;;;;5090806;28;20186;-67
2022/07/21 02:45:47;;;;;;;1.63;1.07;;;22.20;97.70;;;;;;5068272;28;20581;-66
2022/07/21 02:48:14;;;;;;;3.83;1.40;;;22.20;97.60;;;;;;5071604;28;20652;-65
2022/07/21 02:50:43;;;;;;;2.53;1.20;;;22.20;97.90;;;;;;5060862;28;20221;-65
2022/07/21 02:53:19;;;;;;;4.53;1.00;;;22.20;97.90;;;;;;5064579;28;20244;-65
2022/07/21 02:55:48;;;;;;;1.70;1.10;;;22.20;97.50;;;;;;5087772;28;20185;-67
2022/07/21 02:58:18;;;;;;;3.10;1.33;;;22.10;97.50;;;;;;5076685;28;20555;-65
2022/07/21 03:00:59;;;;;;;4.50;1.10;;;22.10;97.70;;;;;;5074018;28;20601;-67
2022/07/21 03:03:29;;;;;;;2.17;1.00;;;22.20;98.00;;;;;;5086966;28;20689;-66
2022/07/21 03:05:56;;;;;;;4.30;1.60;;;22.20;98.30;;;;;;5078108;28;20660;-66
2022/07/21 03:08:25;;;;;;;5.50;1.50;;;22.20;98.30;;;;;;5073213;28;20202;-65
2022/07/21 03:10:52;;;;;;;2.17;1.07;;;22.20;98.40;;;;;;5086098;28;21823;-67
2022/07/21 03:13:19;;;;;;;2.03;1.27;;;22.20;98.70;;;;;;5084439;28;20227;-66
2022/07/21 03:15:46;;;;;;;2.73;1.20;;;22.10;98.80;;;;;;5076019;28;20198;-66
2022/07/21 03:18:12;;;;;;;3.77;1.30;;;22.10;99.00;;;;;;5060536;28;20178;-66
2022/07/21 03:20:44;;;;;;;2.50;1.30;;;22.10;99.00;;;;;;5087059;28;20247;-65
2022/07/21 03:23:11;;;;;;;3.87;1.37;;;22.10;99.30;;;;;;5075574;28;20182;-68
2022/07/21 03:25:38;;;;;;;4.40;1.40;;;22.10;99.60;;;;;;5069044;28;20194;-67
2022/07/21 03:28:06;;;;;;;2.03;1.33;;;22.10;99.80;;;;;;5082088;28;20286;-65
2022/07/21 03:30:35;;;;;;;2.60;1.40;;;22.20;99.90;;;;;;5081431;28;20218;-68
2022/07/21 03:33:02;;;;;;;3.00;1.40;;;22.10;99.90;;;;;;5046178;28;20654;-66
2022/07/21 03:35:28;;;;;;;3.20;1.47;;;22.10;99.90;;;;;;5088641;28;20221;-68
2022/07/21 03:37:59;;;;;;;3.60;1.53;;;22.20;99.90;;;;;;5075209;28;20269;-66
2022/07/21 03:40:30;;;;;;;3.37;1.60;;;22.30;99.90;;;;;;5088184;28;20711;-67
2022/07/21 03:43:01;;;;;;;1.83;1.30;;;22.30;99.90;;;;;;5071673;28;20255;-67
2022/07/21 03:45:30;;;;;;;1.97;1.20;;;22.30;99.90;;;;;;5072919;28;20613;-66
2022/07/21 03:48:01;;;;;;;4.33;1.50;;;22.30;99.90;;;;;;5088575;28;20268;-66
2022/07/21 03:50:29;;;;;;;3.03;1.40;;;22.30;99.90;;;;;;5059243;28;20213;-68
2022/07/21 03:52:55;;;;;;;4.23;1.57;;;22.30;99.90;;;;;;5086462;28;20186;-67
2022/07/21 03:55:22;;;;;;;3.37;1.60;;;22.40;99.90;;;;;;5073914;28;20193;-65
2022/07/21 03:57:52;;;;;;;4.80;1.53;;;22.40;99.90;;;;;;5088744;28;20703;-65
2022/07/21 04:00:29;;;;;;;2.77;1.63;;;22.50;99.90;;;;;;5077340;28;20209;-65
2022/07/21 04:02:57;;;;;;;4.37;1.90;;;22.40;99.90;;;;;;5087748;28;20224;-67
2022/07/21 04:05:25;;;;;;;4.47;1.90;;;22.50;99.90;;;;;;5088916;28;20197;-65
2022/07/21 04:07:53;;;;;;;2.43;1.70;;;22.40;99.90;;;;;;5085615;28;20198;-66
2022/07/21 04:10:26;;;;;;;6.50;1.97;;;22.50;99.90;;;;;;5086153;28;20264;-66
2022/07/21 04:12:55;;;;;;;5.43;1.53;;;22.50;99.90;;;;;;5089306;28;20198;-65
2022/07/21 04:15:22;;;;;;;7.23;2.20;;;22.50;99.90;;;;;;5087243;28;20194;-65
2022/07/21 04:17:50;;;;;;;3.87;2.07;;;22.50;99.90;;;;;;5086870;28;20194;-65
2022/07/21 04:20:17;;;;;;;2.53;1.77;;;22.50;99.90;;;;;;5088226;28;20198;-65
2022/07/21 04:22:45;;;;;;;5.10;1.83;;;22.60;99.90;;;;;;5085749;28;20201;-67
2022/07/21 04:25:13;;;;;;;6.23;2.07;;;22.70;99.90;;;;;;5079779;28;20194;-67
2022/07/21 04:27:41;;;;;;;7.10;1.60;;;22.70;99.90;;;;;;5085886;28;20308;-66
2022/07/21 04:30:13;;;;;;;5.67;1.77;;;22.70;99.90;;;;;;5084713;28;20769;-67
2022/07/21 04:32:39;;;;;;;7.37;2.13;;;22.70;99.90;;;;;;5085110;28;20648;-65
2022/07/21 04:35:07;;;;;;;2.93;1.50;;;22.80;99.90;;;;;;5064423;28;20191;-68
2022/07/21 04:37:35;;;;;;;2.65;1.50;;;22.80;99.90;;;;;;5075510;28;20186;-65
2022/07/21 04:40:05;;;;;;;3.90;1.70;;;22.90;99.90;;;;;;5089950;28;20182;-65
2022/07/21 04:42:32;;;;;;;7.77;1.87;;;22.90;99.90;;;;;;5081551;28;20260;-65
2022/07/21 04:44:58;;;;;;;4.57;1.90;;;23.00;99.90;;;;;;5054879;28;20197;-68
2022/07/21 04:47:24;;;;;;;2.47;1.50;;;23.10;99.90;;;;;;5082618;28;20204;-66
2022/07/21 04:49:51;;;;;;;5.77;2.00;;;23.20;99.90;;;;;;5086880;28;20233;-67
2022/07/21 04:52:17;;;;;;;2.73;1.60;;;23.30;99.90;;;;;;5065513;28;20207;-65
2022/07/21 04:54:44;;;;;;;5.80;1.83;;;23.30;99.90;;;;;;5086095;28;20619;-65
2022/07/21 04:57:10;;;;;;;3.85;1.50;;;23.40;99.90;;;;;;5085082;28;20261;-65
2022/07/21 04:59:36;;;;;;;2.75;1.73;;;23.50;99.90;;;;;;5059642;28;20205;-67
2022/07/21 05:02:04;;;;;;;4.20;1.70;;;23.50;99.90;;;;;;5076918;28;20194;-67
2022/07/21 05:04:31;;;;;;;2.20;1.48;;;23.60;99.90;;;;;;5090325;28;20222;-65
2022/07/21 05:06:58;;;;;;;4.68;1.50;;;23.60;99.90;;;;;;5072332;28;20305;-66
2022/07/21 05:09:24;;;;;;;2.45;1.33;;;23.70;99.90;;;;;;5070610;28;20222;-65
2022/07/21 05:11:50;;;;;;;3.25;1.70;;;23.70;99.90;;;;;;5087140;28;20182;-67
2022/07/21 05:14:16;;;;;;;2.83;1.30;;;23.80;99.90;;;;;;5067292;28;20940;-66
2022/07/21 05:16:43;;;;;;;3.30;1.60;;;23.80;99.90;;;;;;5085262;28;20241;-65
2022/07/21 05:19:10;;;;;;;4.43;1.50;;;23.90;99.90;;;;;;5085698;28;20194;-66
2022/07/21 05:21:36;;;;;;;2.30;1.20;;;24.00;99.90;;;;;;5043986;28;20190;-66
2022/07/21 05:24:03;;;;;;;1.77;1.40;;;24.10;99.90;;;;;;5074727;28;20659;-65
2022/07/21 05:26:29;;;;;;;1.97;1.37;;;24.10;99.90;;;;;;5060698;28;20334;-66
2022/07/21 05:28:56;;;;;;;2.33;1.50;;;24.10;99.90;;;;;;5081008;28;20197;-65
2022/07/21 05:31:22;;;;;;;3.10;1.38;;;24.20;99.90;;;;;;5044935;28;20235;-66
2022/07/21 05:33:49;;;;;;;3.13;1.40;;;24.20;99.90;;;;;;5083141;28;20268;-68
2022/07/21 05:36:15;;;;;;;2.92;1.60;;;24.30;99.90;;;;;;5057406;28;20187;-66
2022/07/21 05:38:41;;;;;;;1.77;1.33;;;24.40;99.90;;;;;;5068665;28;20254;-65
2022/07/21 05:41:11;;;;;;;2.10;1.48;;;24.50;99.90;;;;;;5075172;28;20785;-65
2022/07/21 05:43:37;;;;;;;6.00;1.40;;;24.50;99.90;;;;;;5072359;28;20211;-66
2022/07/21 05:46:04;;;;;;;4.07;1.40;;;24.60;99.90;;;;;;5084332;28;20190;-66
2022/07/21 05:48:30;;;;;;;3.08;1.27;;;24.60;99.90;;;;;;5087970;28;20201;-67
2022/07/21 05:50:56;;;;;;;4.93;1.60;;;24.70;99.90;;;;;;5069651;28;20217;-66
2022/07/21 05:53:22;;;;;;;3.15;1.40;;;24.80;99.90;;;;;;5064694;28;20191;-67
2022/07/21 05:55:49;;;;;;;6.93;1.60;;;24.90;99.90;;;;;;5080495;28;20182;-65
2022/07/21 05:58:18;;;;;;;5.05;1.50;;;24.90;99.70;;;;;;5078514;28;20183;-67
2022/07/21 06:01:07;;;;;;;3.58;1.30;;;25.00;99.80;;;;;;5073466;28;20644;-66
2022/07/21 06:03:31;;;;;;;5.53;1.30;;;25.00;98.90;;;;;;5065702;28;20197;-66
2022/07/21 06:05:57;;;;;;;5.13;1.27;;;25.30;97.70;;;;;;5076482;28;20243;-68
2022/07/21 06:08:23;;;;;;;2.75;1.50;;;25.40;98.10;;;;;;5079433;28;20301;-65
2022/07/21 06:10:53;;;;;;;5.35;1.65;;;25.40;97.80;;;;;;5084864;28;20218;-66
2022/07/21 06:13:19;;;;;;;5.93;1.50;;;25.50;97.40;;;;;;5051505;28;20789;-67
2022/07/21 06:15:48;;;;;;;7.05;1.58;;;25.60;97.30;;;;;;5058591;28;20191;-66
2022/07/21 06:18:15;;;;;;;3.67;1.50;;;25.60;96.40;;;;;;5083237;28;20251;-64
2022/07/21 06:20:42;;;;;;;3.58;1.40;;;25.70;96.40;;;;;;5062998;28;20218;-67
2022/07/21 06:23:08;;;;;;;6.35;1.67;;;25.80;95.50;;;;;;5072434;28;20198;-65
2022/07/21 06:25:34;;;;;;;2.35;1.38;;;26.00;95.50;;;;;;5086260;28;20196;-66
2022/07/21 06:28:01;;;;;;;2.50;1.48;;;26.00;95.80;;;;;;5069805;28;20218;-66
2022/07/21 06:30:27;;;;;;;5.80;1.35;;;26.00;95.30;;;;;;5081278;28;20239;-66
2022/07/21 06:32:53;;;;;;;2.42;1.35;;;26.10;93.40;;;;;;5064388;28;20186;-68
2022/07/21 06:35:21;;;;;;;3.35;1.70;;;26.30;92.30;;;;;;5079407;28;20247;-65
2022/07/21 06:37:48;;;;;;;4.25;1.30;;;26.40;91.70;;;;;;5063149;28;20194;-66
2022/07/21 06:40:16;;;;;;;2.42;1.30;;;26.60;92.60;;;;;;5083829;28;20194;-67
2022/07/21 06:42:43;;;;;;;4.95;1.50;;;26.80;92.50;;;;;;5077399;28;20221;-66
2022/07/21 06:45:09;;;;;;;4.65;1.70;;;26.80;93.00;;;;;;5048109;28;21149;-67
2022/07/21 06:47:36;;;;;;;3.45;1.50;;;26.80;93.50;;;;;;5082738;28;20201;-67
2022/07/21 06:50:04;;;;;;;3.63;1.50;;;26.90;93.60;;;;;;5068375;28;20229;-66
2022/07/21 06:52:32;;;;;;;3.70;1.35;;;27.00;93.00;;;;;;5077870;28;20187;-66
2022/07/21 06:54:58;;;;;;;3.15;1.35;;;27.10;93.60;;;;;;5083157;28;20820;-66
2022/07/21 06:57:25;;;;;;;4.80;1.50;;;27.20;94.10;;;;;;5087119;28;20186;-66
2022/07/21 06:59:52;;;;;;;4.30;1.90;;;27.30;94.10;;;;;;5071350;28;20183;-66
2022/07/21 07:02:18;;;;;;;8.05;1.83;;;27.50;95.10;;;;;;5078290;28;20197;-66
2022/07/21 07:04:44;;;;;;;6.28;2.15;;;27.60;94.90;;;;;;5088442;28;20185;-66
2022/07/21 07:07:11;;;;;;;8.50;1.92;;;27.80;95.40;;;;;;5071131;28;20201;-65
2022/07/21 07:09:37;;;;;;;4.15;1.88;;;27.80;94.40;;;;;;5081430;28;20751;-67
2022/07/21 07:12:05;;;;;;;6.93;1.98;;;27.90;94.70;;;;;;5082234;28;20406;-66
2022/07/21 07:14:33;;;;;;;3.15;1.73;;;28.00;94.40;;;;;;5068206;28;20186;-67
2022/07/21 07:17:02;;;;;;;3.25;1.80;;;28.10;93.60;;;;;;5086470;28;20221;-68
2022/07/21 07:19:32;;;;;;;5.43;1.50;;;28.20;94.40;;;;;;5083132;28;20190;-67
2022/07/21 07:21:59;;;;;;;6.47;2.10;;;28.20;94.30;;;;;;5062282;28;20182;-66
2022/07/21 07:24:25;;;;;;;5.53;1.90;;;28.40;94.20;;;;;;5080921;28;20534;-66
2022/07/21 07:26:51;;;;;;;11.32;2.15;;;28.40;94.20;;;;;;5085266;28;20290;-66
2022/07/21 07:29:18;;;;;;;7.50;1.80;;;28.40;94.20;;;;;;5085367;28;20229;-66
2022/07/21 07:31:44;;;;;;;5.18;1.85;;;28.60;94.30;;;;;;5046109;28;20186;-66
2022/07/21 07:34:10;;;;;;;11.05;2.13;;;28.60;94.70;;;;;;5069673;28;20523;-67
2022/07/21 07:36:37;;;;;;;11.43;2.05;;;28.70;94.70;;;;;;5063566;28;20186;-67
2022/07/21 07:39:04;;;;;;;4.40;1.98;;;28.70;94.80;;;;;;5083976;28;20228;-68
2022/07/21 07:41:31;;;;;;;3.10;1.83;;;28.80;93.50;;;;;;5086827;28;20646;-66
2022/07/21 07:43:59;;;;;;;5.22;2.00;;;28.90;94.30;;;;;;5080311;28;20196;-67
2022/07/21 07:46:27;;;;;;;4.00;2.08;;;29.00;94.40;;;;;;5061909;28;20198;-67
2022/07/21 07:48:53;;;;;;;7.50;2.00;;;29.10;94.70;;;;;;5068104;28;20205;-67
2022/07/21 07:51:20;;;;;;;5.45;1.60;;;29.20;93.70;;;;;;5085057;28;20214;-66
2022/07/21 07:53:46;;;;;;;6.05;2.00;;;29.20;91.10;;;;;;5068864;28;20236;-67
2022/07/21 07:56:12;;;;;;;5.78;1.90;;;29.20;92.60;;;;;;5068456;28;20190;-65
2022/07/21 07:58:38;;;;;;;2.53;1.50;;;29.30;92.90;;;;;;5083741;28;20243;-67
2022/07/21 08:01:05;;;;;;;2.97;1.73;;;29.40;92.40;;;;;;5065945;28;20194;-68
2022/07/21 08:03:31;;;;;;;4.13;1.95;;;29.40;92.30;;;;;;5084469;28;20616;-66
2022/07/21 08:06:06;;;;;;;4.30;2.00;;;29.40;91.50;;;;;;5086289;28;20186;-66
2022/07/21 08:08:33;;;;;;;4.80;1.58;;;29.40;92.30;;;;;;5068405;28;20205;-66
2022/07/21 08:11:00;;;;;;;9.38;1.60;;;29.50;91.90;;;;;;5063575;28;20232;-66
2022/07/21 08:13:26;;;;;;;3.08;1.67;;;29.70;91.70;;;;;;5076365;28;20178;-65
2022/07/21 08:15:53;;;;;;;3.60;1.60;;;29.80;91.50;;;;;;5061602;28;20609;-66
2022/07/21 08:18:20;;;;;;;6.82;1.75;;;29.90;91.50;;;;;;5072710;28;20194;-66
2022/07/21 08:20:48;;;;;;;4.10;1.75;;;29.90;91.70;;;;;;5045747;28;20197;-65
2022/07/21 08:23:15;;;;;;;10.20;2.15;;;30.20;91.80;;;;;;5079550;28;20261;-64
2022/07/21 08:25:42;;;;;;;5.32;1.73;;;30.30;91.60;;;;;;5083988;28;20186;-67
2022/07/21 08:28:09;;;;;;;10.45;2.20;;;30.50;91.60;;;;;;5081184;28;20639;-67
2022/07/21 08:30:37;;;;;;;5.65;2.00;;;30.70;92.00;;;;;;5061865;28;20214;-66
2022/07/21 08:33:04;;;;;;;5.28;1.83;;;30.90;93.20;;;;;;5082317;28;20205;-67
2022/07/21 08:35:32;;;;;;;14.70;2.45;;;30.90;93.80;;;;;;5061070;28;20280;-65
2022/07/21 08:38:04;;;;;;;7.85;2.20;;;30.90;93.50;;;;;;5061185;28;20189;-66
2022/07/21 08:40:41;;;;;;;7.15;2.08;;;30.90;93.40;;;;;;5064917;28;20315;-67
2022/07/21 08:43:09;;;;;;;6.13;2.30;;;30.90;92.70;;;;;;5054754;28;20186;-68
2022/07/21 08:45:37;;;;;;;5.15;2.00;;;30.80;92.80;;;;;;5044830;28;20324;-68
2022/07/21 08:48:06;;;;;;;4.43;1.80;;;30.70;91.40;;;;;;5077691;28;20264;-66
2022/07/21 08:50:38;;;;;;;8.15;2.50;;;30.80;91.10;;;;;;5083906;28;20777;-68
2022/07/21 08:53:06;;;;;;;10.10;2.60;;;30.80;92.60;;;;;;5083790;28;20254;-67
2022/07/21 08:55:36;;;;;;;5.07;1.88;;;30.70;94.10;;;;;;5087222;28;20189;-67
2022/07/21 08:58:04;;;;;;;8.65;2.20;;;30.90;93.10;;;;;;5063628;28;20205;-67
2022/07/21 09:00:34;;;;;;;11.50;2.58;;;30.90;93.70;;;;;;5090425;28;20601;-66
2022/07/21 09:03:20;;;;;;;6.18;2.10;;;31.00;93.70;;;;;;5078952;28;20263;-66
2022/07/21 09:06:00;;;;;;;6.30;2.40;;;31.10;93.90;;;;;;5081623;28;20194;-66
2022/07/21 09:08:36;;;;;;;9.68;2.33;;;31.10;94.20;;;;;;5064238;28;20201;-67
2022/07/21 09:11:14;;;;;;;9.27;2.22;;;31.10;94.90;;;;;;5080874;28;20216;-66
2022/07/21 09:13:43;;;;;;;6.25;2.45;;;31.10;96.70;;;;;;5069069;28;20221;-66
2022/07/21 09:16:11;;;;;;;7.75;2.58;;;31.20;96.70;;;;;;5065537;28;20206;-66
2022/07/21 09:18:57;;;;;;;5.82;2.30;;;31.30;95.30;;;;;;5082100;28;20277;-66
2022/07/21 09:21:24;;;;;;;6.40;2.65;;;31.30;95.80;;;;;;5061633;28;20256;-68
2022/07/21 09:23:51;;;;;;;6.13;2.20;;;31.30;95.50;;;;;;5054937;28;20257;-66
2022/07/21 09:26:17;;;;;;;10.90;2.50;;;31.30;95.10;;;;;;5069812;28;20270;-66
2022/07/21 09:28:44;;;;;;;9.35;2.53;;;31.30;94.90;;;;;;5087794;28;20610;-67
2022/07/21 09:31:14;;;;;;;11.07;2.63;;;31.60;95.50;;;;;;5088568;28;20562;-66
2022/07/21 09:33:45;;;;;;;7.97;2.50;;;31.60;95.80;;;;;;5063955;28;20217;-66
2022/07/21 09:36:17;;;;;;;10.45;2.78;;;31.70;96.10;;;;;;5066051;28;20183;-67
2022/07/21 09:38:51;;;;;;;10.93;2.90;;;31.80;95.90;;;;;;5069157;28;20182;-68
2022/07/21 09:41:21;;;;;;;10.93;2.90;;;31.90;96.20;;;;;;5087807;28;20279;-65
2022/07/21 09:43:53;;;;;;;5.85;2.50;;;31.90;96.60;;;;;;5087001;28;20185;-68
2022/07/21 09:46:29;;;;;;;6.80;2.65;;;31.90;94.90;;;;;;5081040;28;20555;-67
2022/07/21 09:49:02;;;;;;;10.50;2.90;;;32.00;95.90;;;;;;5082510;28;20220;-66
2022/07/21 09:51:41;;;;;;;11.45;2.65;;;32.10;96.90;;;;;;5067827;28;20905;-66
2022/07/21 09:54:10;;;;;;;5.30;2.60;;;32.10;96.20;;;;;;5072638;28;20659;-67
2022/07/21 09:56:47;;;;;;;8.45;2.92;;;32.20;95.30;;;;;;5051483;28;20623;-65
2022/07/21 09:59:14;;;;;;;14.10;3.83;;;32.40;96.20;;;;;;5079378;28;20190;-66
2022/07/21 10:01:44;;;;;;;15.45;3.20;;;32.60;96.00;;;;;;5069901;28;20243;-67
2022/07/21 10:04:13;;;;;;;11.38;2.60;;;32.60;95.70;;;;;;5060753;28;20838;-68
2022/07/21 10:06:39;;;;;;;7.22;2.88;;;32.60;96.70;;;;;;5085058;28;20273;-67
2022/07/21 10:09:09;;;;;;;7.70;2.60;;;32.70;96.90;;;;;;5068293;28;20530;-67
2022/07/21 10:11:36;;;;;;;7.40;2.30;;;32.60;96.80;;;;;;5064739;28;20207;-66
2022/07/21 10:14:03;;;;;;;12.57;3.22;;;32.60;96.40;;;;;;5083703;28;20534;-65
2022/07/21 10:16:29;;;;;;;9.98;2.90;;;32.60;96.80;;;;;;5086499;28;20244;-66
2022/07/21 10:19:25;;;;;;;11.90;3.03;;;32.80;97.30;;;;;;5065650;28;20883;-66
2022/07/21 10:22:09;;;;;;;11.10;3.30;;;32.80;98.00;;;;;;5071964;28;20186;-67
2022/07/21 10:24:37;;;;;;;15.02;3.40;;;32.60;98.00;;;;;;5087346;28;20188;-66
2022/07/21 10:27:11;;;;;;;9.05;3.38;;;32.80;98.20;;;;;;5085588;28;20302;-66
2022/07/21 10:29:54;;;;;;;9.23;3.25;;;32.90;98.30;;;;;;5081230;28;20206;-66
2022/07/21 10:32:36;;;;;;;7.10;3.10;;;32.90;98.70;;;;;;5089635;28;20186;-65
2022/07/21 10:35:30;;;;;;;11.65;3.35;;;32.70;99.10;;;;;;5075600;28;20212;-66
2022/07/21 10:37:57;;;;;;;14.07;3.67;;;32.70;99.40;;;;;;5071909;28;20182;-66
2022/07/21 10:40:24;;;;;;;13.98;3.35;;;32.70;99.90;;;;;;5076413;28;20194;-66
2022/07/21 10:43:00;;;;;;;18.73;3.67;;;32.90;99.80;;;;;;5058614;28;20206;-66
2022/07/21 10:45:42;;;;;;;11.13;3.53;;;32.80;99.90;;;;;;5087748;28;20684;-66
2022/07/21 10:48:37;;;;;;;12.38;3.58;;;32.60;99.90;;;;;;5070065;28;20285;-67
2022/07/21 10:51:09;;;;;;;14.35;3.35;;;32.60;99.90;;;;;;5085664;28;20301;-65
2022/07/21 10:53:36;;;;;;;12.95;3.47;;;32.60;99.90;;;;;;5071481;28;20182;-67
2022/07/21 10:56:03;;;;;;;9.98;3.50;;;32.60;99.90;;;;;;5089661;28;20185;-65
2022/07/21 10:58:41;;;;;;;12.65;3.65;;;32.70;99.90;;;;;;5087139;28;20178;-65
2022/07/21 11:01:26;;;;;;;12.43;3.33;;;32.60;99.40;;;;;;5064247;28;20197;-65
2022/07/21 11:04:20;;;;;;;9.15;2.85;;;32.40;99.40;;;;;;5084180;28;20194;-66
2022/07/21 11:06:47;;;;;;;12.57;3.35;;;32.40;99.70;;;;;;5054425;28;20493;-66
2022/07/21 11:09:19;;;;;;;16.05;3.45;;;32.40;99.30;;;;;;5063172;28;20314;-66
2022/07/21 11:12:10;;;;;;;6.28;2.72;;;32.20;99.40;;;;;;5090066;28;20194;-66
2022/07/21 11:14:44;;;;;;;11.57;3.08;;;32.40;99.90;;;;;;5086926;28;20178;-66
2022/07/21 11:17:37;;;;;;;10.57;3.50;;;32.60;99.40;;;;;;5089733;28;20208;-66
2022/07/21 11:20:16;;;;;;;7.70;3.03;;;32.60;99.50;;;;;;5072013;28;20262;-66
2022/07/21 11:22:54;;;;;;;8.30;2.90;;;32.40;99.70;;;;;;5055886;28;20692;-66
2022/07/21 11:25:23;;;;;;;11.05;3.00;;;32.60;99.90;;;;;;5066757;28;20193;-65
2022/07/21 11:27:49;;;;;;;12.32;3.40;;;32.50;99.90;;;;;;5058590;28;20194;-68
2022/07/21 11:30:18;;;;;;;11.00;3.05;;;32.40;99.80;;;;;;5090216;28;20589;-67
2022/07/21 11:32:58;;;;;;;9.85;3.17;;;32.40;99.90;;;;;;5089430;28;20186;-66
2022/07/21 11:35:27;;;;;;;8.93;2.55;;;32.40;99.90;;;;;;5090128;28;20838;-65
2022/07/21 11:37:53;;;;;;;12.13;3.33;;;32.40;99.60;;;;;;5087802;28;20197;-66
2022/07/21 11:40:20;;;;;;;10.43;3.40;;;32.50;99.50;;;;;;5067466;28;20195;-65
2022/07/21 11:42:53;;;;;;;8.18;2.80;;;32.50;99.50;;;;;;5066310;28;20240;-65
2022/07/21 11:45:28;;;;;;;13.95;3.30;;;32.50;99.90;;;;;;5055243;28;20186;-65
2022/07/21 11:47:54;;;;;;;9.80;3.42;;;32.60;98.50;;;;;;5062372;28;20185;-66
2022/07/21 11:50:21;;;;;;;9.45;3.28;;;32.60;99.60;;;;;;5086729;28;20213;-66
2022/07/21 11:52:47;;;;;;;15.25;3.40;;;32.50;99.90;;;;;;5084774;28;20187;-66
2022/07/21 11:55:13;;;;;;;11.25;3.10;;;32.50;99.90;;;;;;5070847;28;20203;-66
2022/07/21 11:57:47;;;;;;;9.77;2.88;;;32.60;98.90;;;;;;5086700;28;20846;-66
2022/07/21 12:00:16;;;;;;;15.13;4.10;;;32.50;98.80;;;;;;5080912;28;20765;-66
2022/07/21 12:02:42;;;;;;;9.45;2.97;;;32.60;99.50;;;;;;5077946;28;20190;-66
2022/07/21 12:05:09;;;;;;;12.77;3.25;;;32.60;99.90;;;;;;5082086;28;20281;-66
2022/07/21 12:07:51;;;;;;;9.82;3.15;;;32.60;99.50;;;;;;5070710;28;20658;-65
2022/07/21 12:10:29;;;;;;;12.48;3.13;;;32.60;99.90;;;;;;5084951;28;20863;-66
2022/07/21 12:13:06;;;;;;;10.27;3.22;;;32.40;98.60;;;;;;5057419;28;20654;-66
2022/07/21 12:15:36;;;;;;;11.98;3.40;;;32.40;99.90;;;;;;5072821;28;20262;-65
2022/07/21 12:18:18;;;;;;;15.70;3.67;;;32.50;99.90;;;;;;5088350;28;20643;-67
2022/07/21 12:20:46;;;;;;;13.85;3.70;;;32.30;99.90;;;;;;5070331;28;20192;-67
2022/07/21 12:23:26;;;;;;;13.25;3.22;;;32.40;99.90;;;;;;5059580;28;20217;-67
2022/07/21 12:25:55;;;;;;;9.75;2.85;;;32.50;99.90;;;;;;5086094;28;20300;-66
2022/07/21 12:28:21;;;;;;;16.55;3.85;;;32.40;99.90;;;;;;5079282;28;20182;-65
2022/07/21 12:30:51;;;;;;;13.00;3.38;;;32.30;99.90;;;;;;5086789;28;20229;-65
2022/07/21 12:33:28;;;;;;;13.20;3.20;;;32.50;99.90;;;;;;5085067;28;20186;-66
2022/07/21 12:36:05;;;;;;;13.05;3.33;;;32.40;99.90;;;;;;5082667;28;20213;-67
2022/07/21 12:38:39;;;;;;;11.73;2.90;;;32.30;99.90;;;;;;5051101;28;20178;-66
2022/07/21 12:41:10;;;;;;;10.65;2.63;;;32.20;99.60;;;;;;5067655;28;20348;-66
2022/07/21 12:43:37;;;;;;;7.63;2.55;;;32.20;98.40;;;;;;5057894;28;20727;-66
2022/07/21 12:46:17;;;;;;;9.43;2.50;;;32.20;98.00;;;;;;5066027;28;20277;-65
2022/07/21 12:48:44;;;;;;;10.07;2.40;;;32.10;98.20;;;;;;5076236;28;20188;-66
2022/07/21 12:51:19;;;;;;;8.73;2.67;;;32.20;97.00;;;;;;5067818;28;20222;-67
2022/07/21 12:53:54;;;;;;;10.25;2.97;;;32.20;97.10;;;;;;5080501;28;20188;-65
2022/07/21 12:56:25;;;;;;;6.47;2.40;;;32.20;97.10;;;;;;5088706;28;20685;-66
2022/07/21 12:58:54;;;;;;;10.48;2.95;;;32.10;96.80;;;;;;5088077;28;20222;-65